Time;durP1;ratioP1;P1;durP2;ratioP2;P2;SDS_P1;SDS_P2;PMS_P1;PMS_P2;Temp;Humidity;BMP_temperature;BMP_pressure;BME280_temperature;BME280_humidity;BME280_pressure;Samples;Min_cycle;Max_cycle;Signal;HPM_P1;HPM_P2
2022/09/27 07:47:19;;;;;;;;;;;18.80;99.90;;;;;;5115526;28;20291;-80
2022/09/27 07:49:44;;;;;;;;;;;19.00;99.90;;;;;;5123976;27;19919;-73
2022/09/27 07:52:10;;;;;;;;;;;19.20;99.90;;;;;;5123325;27;20203;-73
2022/09/27 07:54:43;;;;;;;;;;;19.40;99.90;;;;;;5126127;27;19927;-73
2022/09/27 07:57:40;;;;;;;;;;;19.50;99.90;;;;;;5131058;27;20337;-74
2022/09/27 08:03:24;;;;;;;;;;;19.70;99.90;;;;;;5106924;27;19919;-73
2022/09/27 08:08:58;;;;;;;;;;;20.20;99.90;;;;;;5118169;27;19922;-73
2022/09/27 08:11:24;;;;;;;;;;;20.30;99.90;;;;;;5132826;27;19911;-74
2022/09/27 08:13:51;;;;;;;;;;;20.50;99.90;;;;;;5129430;27;19912;-73
2022/09/27 08:16:20;;;;;;;;;;;20.60;99.90;;;;;;5134371;27;20350;-73
2022/09/27 08:18:46;;;;;;;;;;;20.70;99.90;;;;;;5114974;27;19915;-73
2022/09/27 08:21:12;;;;;;;;;;;20.70;99.90;;;;;;5131991;27;20283;-72
2022/09/27 08:23:41;;;;;;;;;;;20.70;99.90;;;;;;5136593;27;19922;-73
2022/09/27 08:42:11;;;;;;;;;;;21.50;99.90;;;;;;4982663;28;20035;-73
2022/09/27 08:50:47;;;;;;;;;;;21.30;99.90;;;;;;4983340;28;20518;-72
2022/09/27 09:00:09;;;;;;;;;;;;;;;;;;;;;
2022/09/27 09:05:50;;;;;;;;;;;21.50;99.90;;;;;;4944023;29;20026;-72
2022/09/27 09:15:21;;;;;;;;;;;;;;;;;;;;;
2022/09/27 09:18:19;;;;;;;;;;;21.80;99.90;;;;;;5042392;28;19912;-71
2022/09/27 09:21:04;;;;;;;;;;;22.00;99.90;;;;;;5040157;28;20332;-71
2022/09/27 09:24:08;;;;;;;;;;;21.30;99.90;;;;;;5048088;28;19979;-71
2022/09/27 09:30:06;;;;;;;;;;;20.60;99.90;;;;;;5049966;28;20012;-71
2022/09/27 09:33:21;;;;;;;;;;;;;;;;;;;;;
2022/09/27 09:36:14;;;;;;;;;;;20.40;99.90;;;;;;5068579;27;19912;-71
2022/09/27 09:39:09;;;;;;;;;;;;;;;;;;;;;
2022/09/27 09:42:03;;;;;;;;;;;20.40;99.90;;;;;;5031793;28;19917;-71
2022/09/27 09:45:10;;;;;;;;;;;20.40;99.90;;;;;;5008666;28;19913;-71
2022/09/27 09:47:40;;;;;;;;;;;20.40;99.90;;;;;;4981583;28;19945;-71
2022/09/27 09:50:27;;;;;;;;;;;20.20;99.90;;;;;;5044731;28;19954;-71
2022/09/27 09:55:45;;;;;;;;;;;20.00;99.90;;;;;;5120316;27;19991;-71
2022/09/27 09:58:23;;;;;;;;;;;19.80;99.90;;;;;;5117360;27;20025;-71
2022/09/27 10:04:03;;;;;;;;;;;;;;;;;;;;;
2022/09/27 10:06:32;;;;;;;;;;;19.20;99.90;;;;;;5131532;27;20012;-70
2022/09/27 10:09:05;;;;;;;;;;;19.10;99.90;;;;;;5128642;27;20295;-70
2022/09/27 10:11:38;;;;;;;;;;;19.10;99.90;;;;;;5131112;27;19956;-70
2022/09/27 10:14:29;;;;;;;;;;;19.20;99.90;;;;;;5135785;27;19915;-70
2022/09/27 10:22:48;;;;;;;;;;;19.50;99.90;;;;;;5136502;27;20252;-71
2022/09/27 10:25:15;;;;;;;;;;;19.70;99.90;;;;;;5133039;27;19973;-71
2022/09/27 10:27:54;;;;;;;;;;;19.90;99.90;;;;;;5134071;27;19916;-71
2022/09/27 10:30:35;;;;;;;;;;;20.10;99.90;;;;;;5135597;27;19916;-70
2022/09/27 10:33:06;;;;;;;;;;;20.20;99.90;;;;;;5136526;27;19918;-71
2022/09/27 10:35:35;;;;;;;;;;;20.30;99.90;;;;;;5134248;27;19912;-70
2022/09/27 10:38:16;;;;;;;;;;;20.50;99.90;;;;;;5135538;27;19919;-73
2022/09/27 10:40:42;;;;;;;;;;;20.40;99.90;;;;;;5131604;27;19912;-70
2022/09/27 10:43:33;;;;;;;;;;;20.50;99.90;;;;;;5143567;27;20334;-71
2022/09/27 10:46:21;;;;;;;;;;;20.50;99.90;;;;;;5129692;27;20010;-70
2022/09/27 10:48:47;;;;;;;;;;;20.30;99.90;;;;;;5102642;27;19915;-70
2022/09/27 10:51:19;;;;;;;;;;;20.40;99.90;;;;;;5120186;27;20274;-71
2022/09/27 10:53:46;;;;;;;;;;;20.40;99.90;;;;;;5112020;27;19934;-73
2022/09/27 10:56:29;;;;;;;;;;;20.50;99.90;;;;;;5119372;27;20270;-70
2022/09/27 10:58:55;;;;;;;;;;;20.50;99.90;;;;;;5128106;27;20033;-71
2022/09/27 11:01:21;;;;;;;;;;;20.50;99.90;;;;;;5125187;27;19920;-73
2022/09/27 11:03:58;;;;;;;;;;;20.50;99.90;;;;;;5119656;27;19965;-72
2022/09/27 11:06:23;;;;;;;;;;;20.50;99.90;;;;;;5112419;27;19957;-72
2022/09/27 11:08:50;;;;;;;;;;;20.70;99.90;;;;;;5115306;27;19912;-70
2022/09/27 11:11:21;;;;;;;;;;;21.00;99.90;;;;;;5128189;27;20438;-71
2022/09/27 11:14:16;;;;;;;;;;;21.10;99.90;;;;;;5132235;27;20387;-71
2022/09/27 11:16:54;;;;;;;;;;;21.00;99.90;;;;;;5119581;27;20333;-70
2022/09/27 11:19:29;;;;;;;;;;;21.10;99.90;;;;;;5112722;27;20404;-70
2022/09/27 11:22:12;;;;;;;;;;;21.00;99.90;;;;;;5122718;27;19916;-70
2022/09/27 11:24:49;;;;;;;;;;;21.00;99.90;;;;;;5119279;27;20688;-70
2022/09/27 11:27:40;;;;;;;;;;;21.00;99.90;;;;;;5115645;27;19915;-71
2022/09/27 11:30:27;;;;;;;;;;;20.90;99.90;;;;;;5103119;27;19912;-71
2022/09/27 11:33:20;;;;;;;;;;;21.00;99.90;;;;;;5121358;27;19934;-70
2022/09/27 11:35:48;;;;;;;;;;;21.10;99.90;;;;;;5128059;27;19915;-70
2022/09/27 11:38:27;;;;;;;;;;;21.10;99.90;;;;;;5120186;27;20003;-71
2022/09/27 11:41:05;;;;;;;;;;;21.20;99.90;;;;;;5110391;27;20047;-70
2022/09/27 11:43:48;;;;;;;;;;;21.00;99.90;;;;;;5104366;27;19988;-70
2022/09/27 11:46:16;;;;;;;;;;;20.60;99.90;;;;;;5125256;27;20633;-70
2022/09/27 11:48:51;;;;;;;;;;;20.30;99.90;;;;;;5096627;28;20019;-70
2022/09/27 11:51:23;;;;;;;;;;;20.20;99.90;;;;;;5127020;27;19935;-75
2022/09/27 11:54:08;;;;;;;;;;;20.10;99.90;;;;;;5128378;27;20008;-70
2022/09/27 11:56:40;;;;;;;;;;;20.30;99.90;;;;;;5131374;27;20277;-70
2022/09/27 11:59:36;;;;;;;;;;;20.50;99.90;;;;;;5132186;27;20569;-71
2022/09/27 12:02:20;;;;;;;;;;;20.60;99.90;;;;;;5111604;27;19963;-69
2022/09/27 12:05:00;;;;;;;;;;;20.80;99.90;;;;;;5132222;27;19912;-70
2022/09/27 12:07:44;;;;;;;;;;;20.90;99.90;;;;;;5129444;27;20065;-70
2022/09/27 12:10:15;;;;;;;;;;;21.10;99.90;;;;;;5145200;27;20291;-70
2022/09/27 12:12:46;;;;;;;;;;;21.10;99.90;;;;;;5111598;27;20372;-70
2022/09/27 12:15:23;;;;;;;;;;;21.20;99.90;;;;;;5133401;27;19919;-71
2022/09/27 12:17:54;;;;;;;;;;;21.20;99.90;;;;;;5133211;27;20424;-71
2022/09/27 12:20:23;;;;;;;;;;;21.20;99.90;;;;;;5125227;27;20360;-71
2022/09/27 12:22:49;;;;;;;;;;;21.30;99.90;;;;;;5133297;27;19946;-75
2022/09/27 12:25:17;;;;;;;;;;;21.20;99.90;;;;;;5129700;27;19915;-71
2022/09/27 12:27:45;;;;;;;;;;;21.10;99.90;;;;;;5131691;27;19915;-71
2022/09/27 12:30:12;;;;;;;;;;;21.20;99.90;;;;;;5130690;27;20299;-71
2022/09/27 12:32:46;;;;;;;;;;;21.00;99.90;;;;;;5131326;27;19958;-72
2022/09/27 12:35:21;;;;;;;;;;;20.90;99.90;;;;;;5126167;27;20347;-71
2022/09/27 12:37:58;;;;;;;;;;;20.90;99.90;;;;;;5113396;27;20383;-71
2022/09/27 12:40:30;;;;;;;;;;;20.70;99.90;;;;;;5128476;27;19991;-71
2022/09/27 12:43:01;;;;;;;;;;;20.80;99.90;;;;;;5113899;27;20152;-71
2022/09/27 12:45:34;;;;;;;;;;;21.00;99.90;;;;;;5125014;27;19964;-71
2022/09/27 12:48:36;;;;;;;;;;;21.20;99.90;;;;;;5134625;27;20385;-71
2022/09/27 12:51:12;;;;;;;;;;;21.20;99.90;;;;;;5124519;27;19919;-71
2022/09/27 12:53:57;;;;;;;;;;;21.30;99.90;;;;;;5128472;27;19915;-71
2022/09/27 12:56:26;;;;;;;;;;;21.30;99.90;;;;;;5112751;27;19967;-72
2022/09/27 12:59:04;;;;;;;;;;;21.50;99.90;;;;;;5133078;27;20210;-72
2022/09/27 13:01:35;;;;;;;;;;;21.30;99.90;;;;;;5131153;27;19971;-72
2022/09/27 13:04:20;;;;;;;;;;;21.30;99.90;;;;;;5132713;28;20291;-71
2022/09/27 13:07:04;;;;;;;;;;;21.40;99.90;;;;;;5124460;28;19964;-72
2022/09/27 13:09:50;;;;;;;;;;;21.50;99.90;;;;;;5127664;28;19918;-73
2022/09/27 13:12:18;;;;;;;;;;;21.50;99.90;;;;;;5126005;28;19919;-72
2022/09/27 13:15:02;;;;;;;;;;;21.50;99.90;;;;;;5125124;28;19912;-71
2022/09/27 13:17:47;;;;;;;;;;;21.50;99.90;;;;;;5128568;28;19908;-72
2022/09/27 13:20:31;;;;;;;;;;;21.30;99.90;;;;;;5132748;28;20014;-72
2022/09/27 13:23:06;;;;;;;;;;;21.00;99.90;;;;;;5133164;28;19911;-73
2022/09/27 13:25:51;;;;;;;;;;;21.10;99.90;;;;;;5130397;28;20360;-72
2022/09/27 13:28:30;;;;;;;;;;;21.00;99.90;;;;;;5133815;27;19915;-71
2022/09/27 13:30:57;;;;;;;;;;;21.00;99.90;;;;;;5134326;27;20292;-71
2022/09/27 13:33:28;;;;;;;;;;;21.10;99.90;;;;;;5131473;27;20379;-71
2022/09/27 13:36:15;;;;;;;;;;;21.20;99.90;;;;;;5134887;27;19908;-73
2022/09/27 13:39:05;;;;;;;;;;;21.30;99.90;;;;;;5128117;27;20289;-71
2022/09/27 13:41:37;;;;;;;;;;;21.50;99.90;;;;;;5132643;27;19937;-71
2022/09/27 13:44:15;;;;;;;;;;;21.60;99.90;;;;;;5136665;27;19954;-70
2022/09/27 13:46:48;;;;;;;;;;;21.50;99.90;;;;;;5119330;27;20360;-71
2022/09/27 13:49:20;;;;;;;;;;;21.50;99.90;;;;;;5136024;27;20279;-73
2022/09/27 13:51:50;;;;;;;;;;;21.50;99.90;;;;;;5134496;27;19915;-70
2022/09/27 13:54:34;;;;;;;;;;;21.40;99.90;;;;;;5130649;27;19912;-71
2022/09/27 13:57:01;;;;;;;;;;;21.50;99.90;;;;;;5133765;27;19911;-71
2022/09/27 13:59:29;;;;;;;;;;;21.70;99.90;;;;;;5135640;27;19980;-72
2022/09/27 14:01:59;;;;;;;;;;;21.80;99.90;;;;;;5136356;27;20025;-72
2022/09/27 14:04:24;;;;;;;;;;;21.90;99.90;;;;;;5134776;27;19923;-71
2022/09/27 14:16:13;;;;;;;;;;;22.00;99.90;;;;;;5013071;28;19981;-70
2022/09/27 14:18:44;;;;;;;;;;;22.20;99.90;;;;;;5073187;28;19919;-72
2022/09/27 14:21:41;;;;;;;;;;;22.00;99.90;;;;;;5102262;27;19911;-70
2022/09/27 14:27:24;;;;;;;;;;;21.60;99.90;;;;;;5133009;27;19931;-71
2022/09/27 14:29:59;;;;;;;;;;;21.50;99.90;;;;;;5131709;27;19911;-70
2022/09/27 14:39:16;;;;;;;;;;;20.80;99.90;;;;;;5131396;27;20002;-70
2022/09/27 14:41:43;;;;;;;;;;;20.80;99.90;;;;;;5131492;27;20403;-69
2022/09/27 14:44:59;;;;;;;;;;;;;;;;;;;;;
2022/09/27 14:47:27;;;;;;;;;;;20.30;99.90;;;;;;5132942;27;19925;-70
2022/09/27 14:50:23;;;;;;;;;;;20.30;99.90;;;;;;5126826;27;19916;-70
2022/09/27 14:53:05;;;;;;;;;;;20.30;99.90;;;;;;5103213;27;19926;-70
2022/09/27 14:55:33;;;;;;;;;;;20.40;99.90;;;;;;5151185;27;20299;-72
2022/09/27 14:58:07;;;;;;;;;;;20.50;99.90;;;;;;5137515;27;19912;-71
2022/09/27 15:00:36;;;;;;;;;;;20.60;99.90;;;;;;5119853;27;19919;-69
2022/09/27 15:03:25;;;;;;;;;;;20.60;99.90;;;;;;5136009;27;19925;-74
2022/09/27 15:05:53;;;;;;;;;;;20.70;99.90;;;;;;5137445;27;19912;-69
2022/09/27 15:08:29;;;;;;;;;;;20.70;99.90;;;;;;5136129;27;19915;-69
2022/09/27 15:11:06;;;;;;;;;;;20.80;99.90;;;;;;5137415;27;19912;-69
2022/09/27 15:13:42;;;;;;;;;;;20.80;99.90;;;;;;5117251;27;19918;-69
2022/09/27 15:16:24;;;;;;;;;;;20.80;99.90;;;;;;5135208;27;19927;-69
2022/09/27 15:19:20;;;;;;;;;;;20.70;99.90;;;;;;5130387;27;19912;-69
2022/09/27 15:21:52;;;;;;;;;;;20.60;99.90;;;;;;5139757;27;19911;-69
2022/09/27 15:24:39;;;;;;;;;;;20.60;99.90;;;;;;5134052;27;19976;-70
2022/09/27 15:30:33;;;;;;;;;;;20.80;99.90;;;;;;5093761;27;19966;-70
2022/09/27 15:33:19;;;;;;;;;;;20.60;99.90;;;;;;5127616;27;19935;-70
2022/09/27 15:35:54;;;;;;;;;;;20.30;99.90;;;;;;5124654;27;19919;-69
2022/09/27 15:38:33;;;;;;;;;;;20.10;99.90;;;;;;5126617;27;19915;-68
2022/09/27 15:41:19;;;;;;;;;;;;;;;;;;;;;
2022/09/27 15:44:08;;;;;;;;;;;19.80;99.90;;;;;;5134524;27;19911;-69
2022/09/27 15:47:06;;;;;;;;;;;19.80;99.90;;;;;;5131933;27;19912;-70
2022/09/27 15:49:39;;;;;;;;;;;19.60;99.90;;;;;;5123068;27;19915;-69
2022/09/27 15:52:32;;;;;;;;;;;19.60;99.90;;;;;;5116745;27;19927;-70
2022/09/27 15:54:58;;;;;;;;;;;19.60;99.90;;;;;;5115997;27;19968;-69
2022/09/27 15:57:37;;;;;;;;;;;19.50;99.90;;;;;;5135687;27;19911;-69
2022/09/27 16:00:47;;;;;;;;;;;19.50;99.90;;;;;;5117668;27;19911;-69
2022/09/27 16:03:08;;;;;;;;;;;19.50;99.90;;;;;;5130141;27;19915;-69
2022/09/27 16:05:42;;;;;;;;;;;19.40;99.90;;;;;;5136760;27;19912;-69
2022/09/27 16:08:29;;;;;;;;;;;19.50;99.90;;;;;;5130879;27;19961;-70
2022/09/27 16:11:08;;;;;;;;;;;;;;;;;;;;;
2022/09/27 16:13:53;;;;;;;;;;;19.40;99.90;;;;;;5133368;27;19921;-70
2022/09/27 16:19:32;;;;;;;;;;;19.30;99.90;;;;;;5125733;27;20020;-73
2022/09/27 16:28:17;;;;;;;;;;;19.20;99.90;;;;;;5128780;27;19915;-71
2022/09/27 16:31:16;;;;;;;;;;;19.40;99.90;;;;;;5123605;27;20155;-71
2022/09/27 16:39:56;;;;;;;;;;;19.20;99.90;;;;;;5002554;28;20346;-72
2022/09/27 16:42:35;;;;;;;;;;;19.20;99.90;;;;;;5111762;27;19911;-72
2022/09/27 16:45:04;;;;;;;;;;;19.20;99.90;;;;;;5139628;27;20391;-73
2022/09/27 16:47:34;;;;;;;;;;;19.10;99.90;;;;;;5121129;27;20383;-71
2022/09/27 17:03:25;;;;;;;;;;;;;;;;;;;;;
2022/09/27 17:09:14;;;;;;;;;;;19.00;99.90;;;;;;5123978;28;19945;-80
2022/09/27 17:18:11;;;;;;;;;;;18.70;99.90;;;;;;5035894;28;19920;-81
2022/09/27 17:21:06;;;;;;;;;;;;;;;;;;;;;
2022/09/27 17:26:49;;;;;;;;;;;18.80;99.90;;;;;;5124015;28;19954;-80
2022/09/27 17:32:21;;;;;;;;;;;18.70;99.90;;;;;;5133817;28;19926;-80
2022/09/27 17:34:49;;;;;;;;;;;18.60;99.90;;;;;;5138728;28;19904;-82
2022/09/27 17:37:27;;;;;;;;;;;18.50;99.90;;;;;;5127138;28;19912;-80
2022/09/27 17:40:04;;;;;;;;;;;18.40;99.90;;;;;;5132491;28;19991;-79
2022/09/27 17:43:02;;;;;;;;;;;18.50;99.90;;;;;;5128813;28;19933;-79
2022/09/27 17:52:26;;;;;;;;;;;18.30;99.90;;;;;;5067622;28;19923;-79
2022/09/27 17:58:20;;;;;;;;;;;18.00;99.90;;;;;;5044193;28;19969;-79
2022/09/27 18:01:14;;;;;;;;;;;17.90;99.90;;;;;;5057615;28;20390;-81
2022/09/27 18:03:45;;;;;;;;;;;18.00;99.90;;;;;;5081306;28;19953;-79
2022/09/27 18:40:59;;;;;;;;;;;;;;;;;;;;;
2022/09/27 18:47:09;;;;;;;;;;;17.40;99.90;;;;;;4905695;29;19907;-80
2022/09/27 18:56:01;;;;;;;;;;;;;;;;;;;;;
2022/09/27 19:07:48;;;;;;;;;;;17.50;99.90;;;;;;5068900;28;19970;-81
2022/09/27 19:10:25;;;;;;;;;;;17.50;99.90;;;;;;5110508;27;19922;-80
2022/09/27 19:13:05;;;;;;;;;;;;;;;;;;;;;
2022/09/27 19:15:36;;;;;;;;;;;17.40;99.90;;;;;;5113185;27;19951;-80
2022/09/27 19:18:10;;;;;;;;;;;17.40;99.90;;;;;;5120751;27;19997;-80
2022/09/27 19:20:47;;;;;;;;;;;17.50;99.90;;;;;;5122926;27;19911;-80
2022/09/27 19:23:22;;;;;;;;;;;17.60;99.90;;;;;;5130902;27;20040;-80
2022/09/27 19:32:50;;;;;;;;;;;;;;;;;;;;;
2022/09/27 19:35:19;;;;;;;;;;;17.50;99.90;;;;;;5135269;27;19993;-81
2022/09/27 19:44:22;;;;;;;;;;;17.20;99.90;;;;;;5057322;28;19939;-80
2022/09/27 19:47:02;;;;;;;;;;;17.20;99.90;;;;;;5064024;28;19987;-80
2022/09/27 19:49:31;;;;;;;;;;;17.10;99.90;;;;;;5052698;28;19917;-80
2022/09/27 19:52:32;;;;;;;;;;;17.10;99.90;;;;;;5049832;28;19912;-80
2022/09/27 19:55:48;;;;;;;;;;;17.20;99.90;;;;;;5045971;28;19917;-80
2022/09/27 20:01:44;;;;;;;;;;;;;;;;;;;;;
2022/09/27 20:13:28;;;;;;;;;;;17.40;99.90;;;;;;5105825;28;19919;-79
2022/09/27 20:16:19;;;;;;;;;;;17.40;99.90;;;;;;5103448;28;19908;-80
2022/09/27 20:21:49;;;;;;;;;;;17.30;99.90;;;;;;5139210;27;19987;-80
2022/09/27 20:24:19;;;;;;;;;;;17.20;99.90;;;;;;5109358;28;19908;-80
2022/09/27 20:27:24;;;;;;;;;;;17.20;99.90;;;;;;5111684;28;19933;-79
2022/09/27 20:36:25;;;;;;;;;;;16.70;99.90;;;;;;5137758;27;20399;-79
2022/09/27 20:39:06;;;;;;;;;;;;;;;;;;;;;
2022/09/27 20:41:42;;;;;;;;;;;16.30;99.90;;;;;;5127140;27;19990;-80
2022/09/27 20:44:12;;;;;;;;;;;15.80;99.90;;;;;;5122091;28;19908;-79
2022/09/27 20:47:09;;;;;;;;;;;;;;;;;;;;;
2022/09/27 20:52:42;;;;;;;;;;;15.00;99.90;;;;;;5114468;28;19922;-79
2022/09/27 20:55:08;;;;;;;;;;;14.60;99.90;;;;;;5123728;28;19908;-82
2022/09/27 20:58:03;;;;;;;;;;;;;;;;;;;;;
2022/09/27 21:03:34;;;;;;;;;;;14.70;99.90;;;;;;5124787;27;19955;-79
2022/09/27 21:06:21;;;;;;;;;;;;;;;;;;;;;
2022/09/27 21:12:29;;;;;;;;;;;15.10;99.90;;;;;;5092081;28;20460;-80
2022/09/27 21:17:49;;;;;;;;;;;;;;;;;;;;;
2022/09/27 22:48:00;;;;;;;;;;;14.80;99.90;;;;;;4850351;29;19955;-79
2022/09/27 22:53:34;;;;;;;;;;;14.80;99.90;;;;;;4908749;29;19989;-79
2022/09/27 22:56:23;;;;;;;;;;;14.80;99.90;;;;;;4922841;29;19921;-79
2022/09/27 22:58:52;;;;;;;;;;;14.80;99.90;;;;;;4987032;28;19945;-79
2022/09/27 23:04:31;;;;;;;;;;;15.00;99.90;;;;;;5021987;28;19929;-79
2022/09/27 23:06:57;;;;;;;;;;;15.10;99.90;;;;;;5018909;28;19914;-79
2022/09/27 23:09:38;;;;;;;;;;;15.20;99.90;;;;;;5101720;28;19919;-79
2022/09/27 23:25:01;;;;;;;;;;;;;;;;;;;;;
2022/09/27 23:40:18;;;;;;;;;;;15.20;99.90;;;;;;4971357;28;19945;-79
2022/09/27 23:43:03;;;;;;;;;;;15.10;99.90;;;;;;4934455;29;20325;-78
2022/09/27 23:52:16;;;;;;;;;;;15.00;99.90;;;;;;4971477;28;19938;-79
2022/09/27 23:54:42;;;;;;;;;;;15.00;99.90;;;;;;4972348;28;19914;-79
2022/09/27 23:57:08;;;;;;;;;;;15.10;99.90;;;;;;5055898;27;19933;-81
2022/09/27 23:59:47;;;;;;;;;;;;;;;;;;;;;
